Latest Weather Observations for Scottsdale

IDT60801

Issued at 6:31 pm EST Thursday 26 May 2016 (issued every 30 minutes, with the page automatically refreshed every 10 minutes)

About weather observations | Map of weather stations | Latest weather observations for TAS | Other Formats
Station Details ID: 091219 Name: SCOTTSDALE (WEST MINSTONE ROAD) Lat: -41.17 Lon: 147.49 Height: 197.5 m
Data from the previous 72 hours. | See also: Recent months at Scottsdale
Date/Time
EST
Temp
°C
App
Temp
°C
Dew
Point
Rel
Hum
%
Delta-T
°C
Wind Press
QNH
hPa
Press
MSL
hPa
Rain
since 9 am
mm
Dir
 
Spd
km/h
Gust
km/h
Spd
kts
Gust
kts
26/06:30pm 8.6 4.3 5.3 80 1.5 SSW 17 22 9 12 999.7 - 29.2
26/06:00pm 9.0 4.8 5.5 79 1.6 SSW 17 26 9 14 999.5 999.7 29.0
26/05:30pm 9.1 4.4 6.1 81 1.4 S 20 30 11 16 999.2 - 28.8
26/05:00pm 9.3 4.3 6.6 83 1.3 S 22 28 12 15 999.1 - 28.6
26/04:30pm 9.4 4.5 7.1 85 1.1 SSW 22 30 12 16 998.9 - 28.4
26/04:00pm 9.4 5.7 7.8 90 0.8 SSW 17 24 9 13 998.7 - 28.2
26/03:30pm 9.7 6.9 8.5 92 0.6 SSW 13 17 7 9 998.6 - 27.6
26/03:00pm 10.0 7.3 8.8 92 0.6 SSW 13 17 7 9 998.5 998.7 26.8
26/02:30pm 10.3 8.5 9.5 95 0.4 SSW 9 15 5 8 998.4 - 25.8
26/02:00pm 11.0 10.0 10.4 96 0.3 W 6 9 3 5 998.4 - 24.8
26/01:30pm 11.2 10.7 10.8 97 0.2 WNW 4 6 2 3 998.4 - 23.8
26/01:00pm 11.2 11.5 10.8 97 0.2 CALM 0 0 0 0 998.5 - 22.6
26/12:30pm 11.3 10.8 10.7 96 0.3 ESE 4 7 2 4 998.7 - 21.4
26/12:00pm 11.3 11.3 11.1 99 0.1 SE 2 7 1 4 999.0 999.2 20.0
26/11:30am 11.3 11.7 11.1 99 0.1 CALM 0 0 0 0 999.2 - 15.6
26/11:00am 11.5 10.8 11.5 100 0.0 WNW 6 9 3 5 999.6 - 11.4
26/10:30am 11.6 11.7 11.4 99 0.1 W 2 11 1 6 1000.0 - 5.8
26/10:00am 11.6 12.0 11.4 99 0.1 CALM 0 0 0 0 1000.2 - 2.8
26/09:30am 11.5 11.9 11.3 99 0.1 CALM 0 0 0 0 1000.4 - 1.0
26/09:00am 11.7 11.0 11.5 99 0.1 W 6 7 3 4 1000.5 1000.8 9.4
26/08:30am 11.6 10.7 11.4 99 0.1 NW 7 9 4 5 1000.7 - 8.2
26/08:00am 11.5 10.2 11.3 99 0.1 NNW 9 15 5 8 1000.8 - 7.4
26/07:30am 11.5 9.4 11.3 99 0.1 N 13 19 7 10 1000.8 - 5.8
26/07:00am 11.5 9.4 11.3 99 0.1 N 13 17 7 9 1000.9 - 5.4
26/06:30am 11.4 9.3 11.2 99 0.1 NNW 13 17 7 9 1001.1 - 5.0
26/06:00am 11.3 9.6 11.1 99 0.1 NNW 11 17 6 9 1001.1 1001.4 4.4
26/05:30am 11.3 8.4 11.1 99 0.1 NNW 17 22 9 12 1001.4 - 3.6
26/05:00am 11.3 9.9 10.9 97 0.2 N 9 13 5 7 1001.6 - 3.0
26/04:30am 11.2 9.1 11.0 99 0.1 N 13 19 7 10 1001.8 - 2.0
26/04:00am 11.2 7.9 10.8 97 0.2 NNW 19 24 10 13 1002.3 - 1.6
26/03:30am 11.2 8.2 10.8 97 0.2 NNW 17 22 9 12 1002.4 - 1.2
26/03:00am 11.1 8.1 10.7 97 0.2 NNW 17 24 9 13 1002.7 1002.9 1.2
26/02:30am 11.1 7.7 10.7 97 0.2 NNW 19 26 10 14 1003.1 - 1.0
26/02:00am 11.1 7.5 10.7 97 0.2 NNW 20 26 11 14 1003.4 - 0.8
26/01:30am 11.1 8.1 10.7 97 0.2 NNW 17 26 9 14 1003.6 - 0.6
26/01:00am 11.2 8.2 10.6 96 0.3 NNW 17 26 9 14 1004.0 - 0.2
26/12:30am 11.1 8.4 10.3 95 0.4 NNW 15 24 8 13 1004.3 - 0.2
26/12:00am 11.1 8.8 10.3 95 0.4 NNW 13 20 7 11 1005.0 1005.3 0.2
 
Date/Time
EST
Temp
°C
App
Temp
°C
Dew
Point
Rel
Hum
%
Delta-T
°C
Wind Press
QNH
hPa
Press
MSL
hPa
Rain
since 9 am
mm
Dir
 
Spd
km/h
Gust
km/h
Spd
kts
Gust
kts
25/11:30pm 11.2 8.7 9.8 91 0.7 NNW 13 17 7 9 1005.4 - 0.0
25/11:00pm 11.4 8.0 9.2 86 1.1 NNW 17 22 9 12 1005.8 - 0.0
25/10:30pm 11.4 8.3 9.0 85 1.2 NNW 15 20 8 11 1006.2 - 0.0
25/10:00pm 11.1 8.3 8.7 85 1.2 NW 13 22 7 12 1006.6 - 0.0
25/09:30pm 10.6 8.5 8.4 86 1.1 NW 9 13 5 7 1006.7 - 0.0
25/09:00pm 10.8 8.7 8.4 85 1.2 NNW 9 15 5 8 1006.8 1007.1 0.0
25/08:30pm 10.1 9.1 8.7 91 0.7 ENE 4 7 2 4 1006.7 - 0.0
25/08:00pm 9.9 8.3 8.7 92 0.6 ESE 7 9 4 5 1006.6 - 0.0
25/07:30pm 9.5 8.0 8.3 92 0.6 SE 6 7 3 4 1006.8 - 0.0
25/07:00pm 9.6 8.0 8.2 91 0.7 E 6 7 3 4 1007.0 - 0.0
25/06:30pm 9.6 8.4 8.0 90 0.8 ENE 4 6 2 3 1007.2 - 0.0
25/06:00pm 9.5 7.9 7.9 90 0.8 SE 6 6 3 3 1007.3 1007.6 0.0
25/05:30pm 9.7 9.3 8.1 90 0.8 CALM 0 0 0 0 1007.6 - 0.0
25/05:00pm 9.6 9.1 7.7 88 0.9 CALM 0 0 0 0 1007.5 - 0.0
25/04:30pm 10.0 9.5 7.7 86 1.1 CALM 0 0 0 0 1007.9 - 0.0
25/04:00pm 10.5 8.8 7.6 82 1.4 SSE 6 9 3 5 1008.0 - 0.0
25/03:30pm 10.4 8.6 7.1 80 1.6 ESE 6 7 3 4 1008.2 - 0.0
25/03:00pm 10.2 8.3 6.9 80 1.6 E 6 7 3 4 1008.4 1008.6 0.0
25/02:30pm 10.0 8.0 6.2 77 1.8 ESE 6 6 3 3 1008.8 - 0.0
25/02:00pm 10.1 8.0 5.8 74 2.0 E 6 7 3 4 1009.0 - 0.0
25/01:30pm 9.9 7.5 4.3 68 2.5 W 6 9 3 5 1009.5 - 0.0
25/01:00pm 9.6 6.2 4.0 68 2.5 W 11 15 6 8 1009.9 - 0.0
25/12:30pm 9.4 6.6 5.2 75 1.9 NW 9 15 5 8 1010.0 - 0.0
25/12:00pm 9.1 6.4 3.6 68 2.4 N 7 11 4 6 1010.0 1010.3 0.0
25/11:30am 8.7 6.1 4.4 74 1.9 N 7 9 4 5 1010.9 - 0.0
25/11:00am 8.2 5.8 4.1 75 1.8 NNW 6 7 3 4 1011.4 - 0.0
25/10:30am 8.3 6.6 4.0 74 1.9 ENE 2 7 1 4 1011.8 - 0.0
25/10:00am 7.1 5.9 4.6 84 1.1 CALM 0 2 0 1 1012.4 - 0.0
25/09:30am 6.8 4.5 5.0 88 0.8 SE 6 9 3 5 1012.9 - 0.0
25/09:00am 5.9 3.8 4.0 88 0.8 S 4 7 2 4 1013.1 1013.3 0.0
25/08:30am 4.4 2.8 2.2 86 0.9 CALM 0 4 0 2 1013.2 - 0.0
25/08:00am 3.5 -0.1 0.9 83 1.0 SSE 9 11 5 6 1013.0 - 0.0
25/07:30am 3.5 0.0 1.5 87 0.8 SE 9 11 5 6 1012.5 - 0.0
25/07:00am 2.7 -0.9 0.9 88 0.7 SSE 9 11 5 6 1012.8 - 0.0
25/06:30am 2.4 -0.9 0.0 84 0.9 WSW 7 11 4 6 1013.0 - 0.0
25/06:00am 1.7 -2.6 -1.7 78 1.2 ESE 11 13 6 7 1012.9 1013.1 0.0
25/05:30am 1.6 -2.3 -1.5 80 1.1 ESE 9 13 5 7 1013.5 - 0.0
25/05:00am 1.2 -2.1 -1.0 85 0.8 SSE 6 9 3 5 1014.0 - 0.0
25/04:30am 1.4 -2.1 -1.1 83 0.9 S 7 9 4 5 1013.9 - 0.0
25/04:00am 2.4 -1.1 -1.2 77 1.3 S 7 9 4 5 1013.7 - 0.0
25/03:30am 3.1 -0.4 -1.6 71 1.7 S 7 9 4 5 1013.5 - 0.0
25/03:00am 3.4 -0.5 -1.6 70 1.8 SSE 9 15 5 8 1013.3 1013.6 0.0
25/02:30am 3.2 -1.8 -0.9 74 1.5 SSE 15 17 8 9 1013.5 - 0.0
25/02:00am 2.6 -1.9 -0.4 80 1.1 SSE 13 15 7 8 1013.9 - 0.0
25/01:30am 3.3 -0.8 -0.4 77 1.4 SSE 11 15 6 8 1014.0 - 0.0
25/01:00am 1.9 -2.3 -0.9 82 1.0 SSE 11 17 6 9 1014.3 - 0.0
25/12:30am 2.0 -2.1 -0.4 84 0.9 SSE 11 15 6 8 1014.4 - 0.0
25/12:00am 3.0 -2.3 -0.5 78 1.3 S 17 20 9 11 1014.6 1014.9 0.0
 
Date/Time
EST
Temp
°C
App
Temp
°C
Dew
Point
Rel
Hum
%
Delta-T
°C
Wind Press
QNH
hPa
Press
MSL
hPa
Rain
since 9 am
mm
Dir
 
Spd
km/h
Gust
km/h
Spd
kts
Gust
kts
24/11:30pm 3.7 -0.5 -0.9 72 1.7 SSE 11 17 6 9 1014.9 - 0.0
24/11:00pm 3.0 -1.1 -0.2 79 1.2 SSE 11 13 6 7 1015.1 - 0.0
24/10:30pm 1.7 -1.7 -0.5 85 0.8 S 7 11 4 6 1015.2 - 0.0
24/10:00pm 2.9 -0.3 0.8 86 0.8 SW 7 11 4 6 1015.5 - 0.0
24/09:30pm 4.2 -0.3 0.0 74 1.6 S 13 15 7 8 1015.4 - 0.0
24/09:00pm 4.3 0.0 0.7 77 1.4 SSE 13 15 7 8 1015.4 1015.7 0.0
24/08:30pm 4.6 0.3 1.0 77 1.4 SE 13 15 7 8 1015.4 - 0.0
24/08:00pm 3.2 -0.4 0.6 83 1.0 ESE 9 15 5 8 1015.2 - 0.0
24/07:30pm 6.2 2.2 0.4 66 2.3 SSW 11 17 6 9 1015.3 - 0.0
24/07:00pm 7.4 3.0 0.1 60 2.9 SW 13 15 7 8 1015.2 - 0.0
24/06:30pm 8.0 4.3 0.0 57 3.2 SW 9 11 5 6 1015.0 - 0.0
24/06:00pm 6.3 3.3 0.5 66 2.3 WSW 6 7 3 4 1014.9 1015.2 0.0
24/05:30pm 8.1 5.6 1.3 62 2.8 W 4 9 2 5 1014.6 - 0.0
24/05:00pm 8.8 5.6 1.0 58 3.2 W 7 13 4 7 1014.3 - 0.0
24/04:30pm 9.8 6.3 1.2 55 3.6 WSW 9 13 5 7 1014.2 - 0.0
24/04:00pm 10.1 6.3 1.6 55 3.6 W 11 17 6 9 1014.0 - 0.0
24/03:30pm 11.0 6.1 1.9 53 3.9 W 17 28 9 15 1013.7 - 0.0
24/03:00pm 11.9 7.8 2.0 50 4.3 W 13 26 7 14 1013.7 1014.0 0.0
24/02:30pm 11.7 6.8 2.0 51 4.2 WSW 17 28 9 15 1013.3 - 0.0
24/02:00pm 11.9 6.2 2.6 53 4.1 WSW 22 33 12 18 1013.1 - 0.0
24/01:30pm 11.7 6.3 2.6 53 4.0 WSW 20 32 11 17 1013.0 - 0.0
24/01:00pm 11.8 6.3 2.1 51 4.2 W 20 33 11 18 1013.1 - 0.0
24/12:30pm 11.6 5.9 2.7 54 3.9 WSW 22 39 12 21 1013.3 - 0.0
24/12:00pm 10.9 5.5 2.4 55 3.7 WSW 20 32 11 17 1013.4 1013.7 0.0
24/11:30am 11.2 6.8 2.5 55 3.8 WSW 15 24 8 13 1013.5 - 0.0
24/11:00am 10.6 6.5 2.2 56 3.6 WSW 13 20 7 11 1013.7 - 0.0
24/10:30am 10.1 4.8 1.6 55 3.6 WSW 19 30 10 16 1013.7 - 0.0
24/10:00am 9.6 5.8 1.5 57 3.4 SSW 11 17 6 9 1013.8 - 0.0
24/09:30am 8.8 4.8 0.7 57 3.3 SW 11 15 6 8 1013.5 - 0.0
24/09:00am 8.2 4.2 0.8 59 3.0 S 11 20 6 11 1013.2 1013.4 0.0
24/08:30am 7.4 1.6 0.1 60 2.9 SW 20 28 11 15 1013.1 - 0.0
24/08:00am 5.7 1.7 0.3 68 2.1 WSW 11 15 6 8 1012.8 - 0.0
24/07:30am 4.8 1.2 0.7 75 1.6 WSW 9 13 5 7 1012.2 - 0.0
24/07:00am 4.9 0.8 0.0 70 1.9 S 11 17 6 9 1011.7 - 0.0
24/06:30am 3.4 0.7 0.3 80 1.2 WSW 4 9 2 5 1011.5 - 0.0
24/06:00am 3.9 0.4 1.1 82 1.1 W 9 13 5 7 1011.3 1011.6 0.0
24/05:30am 4.5 0.6 0.9 77 1.4 WSW 11 17 6 9 1011.2 - 0.0
24/05:00am 4.8 0.8 0.7 75 1.6 SSW 11 13 6 7 1011.1 - 0.0
24/04:30am 5.4 2.4 0.6 71 1.9 W 6 11 3 6 1011.1 - 0.0
24/04:00am 4.3 1.3 0.7 77 1.4 NW 6 11 3 6 1010.8 - 0.0
24/03:30am 5.8 2.6 0.8 70 2.0 S 7 9 4 5 1011.1 - 0.0
24/03:00am 5.4 1.9 1.1 74 1.7 SE 9 11 5 6 1011.2 1011.5 0.0
24/02:30am 5.6 2.1 1.1 73 1.8 SSE 9 11 5 6 1011.5 - 0.0
24/02:00am 4.7 1.7 0.6 75 1.6 N 6 11 3 6 1011.3 - 0.0
24/01:30am 3.7 0.4 0.0 77 1.4 E 7 11 4 6 1011.2 - 0.0
24/01:00am 5.0 1.8 0.7 74 1.7 S 7 9 4 5 1011.2 - 0.0
24/12:30am 4.8 1.2 0.7 75 1.6 E 9 13 5 7 1011.4 - 0.0
24/12:00am 6.2 3.0 0.7 68 2.2 W 7 17 4 9 1011.5 1011.8 0.0
 
Date/Time
EST
Temp
°C
App
Temp
°C
Dew
Point
Rel
Hum
%
Delta-T
°C
Wind Press
QNH
hPa
Press
MSL
hPa
Rain
since 9 am
mm
Dir
 
Spd
km/h
Gust
km/h
Spd
kts
Gust
kts
23/11:30pm 6.0 2.4 0.7 69 2.1 WNW 9 15 5 8 1011.5 - 0.0
23/11:00pm 5.9 2.3 0.9 70 2.0 WNW 9 15 5 8 1011.4 - 0.0
23/10:30pm 6.5 1.7 0.5 65 2.4 WNW 15 26 8 14 1011.1 - 0.0
23/10:00pm 6.8 1.2 0.2 63 2.6 W 19 30 10 16 1011.2 - 0.0
23/09:30pm 7.3 1.5 0.0 60 2.9 W 20 33 11 18 1011.2 - 0.0
23/09:00pm 7.4 1.6 0.1 60 2.9 W 20 32 11 17 1010.5 1010.8 0.0
23/08:30pm 7.7 0.8 0.2 59 3.0 W 26 41 14 22 1010.3 - 0.0
23/08:14pm 7.9 0.6 -0.2 56 3.2 W 28 48 15 26 1010.0 - 0.0
23/08:00pm 7.8 0.9 0.3 59 3.0 W 26 43 14 23 1009.8 - 0.0
23/07:49pm 8.1 0.8 0.1 57 3.2 W 28 46 15 25 1009.7 - 0.0
23/07:30pm 8.1 0.4 0.1 57 3.2 W 30 46 16 25 1009.2 - 0.0
23/07:00pm 8.2 1.0 0.9 60 3.0 W 28 50 15 27 1008.9 - 0.0
23/06:55pm 8.3 1.1 0.7 59 3.1 W 28 50 15 27 1008.8 - 0.0

Other Formats:

Comma delimited format used in spreadsheet applications
http://www.bom.gov.au/fwo/IDT60801/IDT60801.94972.axf

JavaScript Object Notation format (JSON) in row-major order
http://www.bom.gov.au/fwo/IDT60801/IDT60801.94972.json